Aeroporto :
LOGIN :

Iscrizione | Disclaimer

   EN    FR    IT 

 










Sommario :    VFR   VFR Marginale   IFR   IFR Intensivo   IFR Molto Intensivo
Visibilità : 
Base nubi : 
>= 8 km
>= 3000ft
5 / 8 km
1000 / 3000 ft
1500m / 5 km
500 / 1000 ft
800 / 1500m
200 / 500 ft
< 800m
< 200 ft
Simboli :   Temporali  Nebbia  Neve Forte  Precipitazioni Forti  Vento > 20 kt
SIGMETs :   Varie  Temporali  Ghiacco  Turbolenza  Onda orograficha  Ceneri Vulcaniche






- Altitudine del aeroporto : 433 ft
- Codice IATA : CCF


LFMK - Carcassonne

ULTIMO METAR :
  • 180800Z AUTO VRB02KT CAVOK 03/03 Q1030 NOSIG

METARs OBSOLETI :
  • 180730Z AUTO VRB02KT CAVOK 03/02 Q1031 NOSIG
  • 180700Z AUTO VRB02KT CAVOK 04/02 Q1030 NOSIG
  • 180630Z AUTO 17004KT 130V210 CAVOK 04/03 Q1030 NOSIG
  • 180600Z AUTO 17003KT 140V210 CAVOK 04/03 Q1030 NOSIG
  • 180530Z AUTO 16003KT CAVOK 04/02 Q1030 NOSIG

TAF TAF LFMK
Valido dal 18 a 03 ore il 19 a 03 ore UTC


180200Z 1803/1903 27007KT 9999 SCT035
BECMG 1805/1807 VRB05KT CAVOK
BECMG 1813/1814 08010KT
BECMG 1818/1820 BKN040 BKN090
PROB30 1821/1901 -RA



MetMap, La meteo Aeronautica in un colpo d'occhio ! - Copyright ORBIFLY Dicembre 2007 - Disclaimer

ORBIFLY MET'MAP TEAM :

Programmazione e sviluppo : Alexandra Zaïnal
Concezione : Baudouin d'Aumeries
Aiuto per la programmazione : Marc-Olivier Méhu
Supporto tecnico e logistico : Manuel Goepfert
Aiuto per la traduzione : Arnaldo La Scala

Contatto : metmap@orbifly.com




FONTI E CREDITI :

   NOAA